createdAt,value
2022-11-15T00:00:48.930Z,96124.78
2022-11-15T00:03:37.717Z,96121.28
2022-11-15T00:06:27.799Z,96126.09
2022-11-15T00:09:14.100Z,96117.25
2022-11-15T00:12:00.441Z,96113.53
2022-11-15T00:14:48.116Z,96104.41
2022-11-15T00:17:34.428Z,96099.59
2022-11-15T00:20:20.909Z,96102.00
2022-11-15T00:23:10.401Z,96108.44
2022-11-15T00:26:00.527Z,96103.34
2022-11-15T00:28:47.496Z,96096.94
2022-11-15T00:31:33.683Z,96095.31
2022-11-15T00:34:20.653Z,96087.28
2022-11-15T00:37:08.559Z,96089.44
2022-11-15T00:39:56.722Z,96086.22
2022-11-15T00:42:43.124Z,96081.97
2022-11-15T00:45:29.545Z,96088.91
2022-11-15T00:48:15.802Z,96083.56
2022-11-15T00:51:02.389Z,96081.41
2022-11-15T00:53:48.558Z,96083.56
2022-11-15T00:56:36.226Z,96090.81
2022-11-15T00:59:24.048Z,96087.56
2022-11-15T01:02:10.512Z,96086.00
2022-11-15T01:04:56.864Z,96082.31
2022-11-15T01:07:44.628Z,96087.91
2022-11-15T01:10:33.403Z,96090.59
2022-11-15T01:13:23.195Z,96095.44
2022-11-15T01:16:11.392Z,96098.09
2022-11-15T01:18:58.098Z,96099.19
2022-11-15T01:21:44.531Z,96101.34
2022-11-15T01:24:30.927Z,96103.28
2022-11-15T01:27:17.205Z,96106.25
2022-11-15T01:30:05.869Z,96099.28
2022-11-15T01:32:52.010Z,96096.63
2022-11-15T01:35:41.135Z,96086.47
2022-11-15T01:38:27.811Z,96097.69
2022-11-15T01:41:19.386Z,96089.94
2022-11-15T01:44:33.828Z,96085.94
2022-11-15T01:47:27.028Z,96085.41
2022-11-15T01:50:18.415Z,96081.69
2022-11-15T01:53:05.457Z,96077.44
2022-11-15T01:55:54.059Z,96071.03
2022-11-15T01:58:43.120Z,96073.16
2022-11-15T02:01:33.074Z,96073.44
2022-11-15T02:04:25.531Z,96070.25
2022-11-15T02:07:14.325Z,96055.03
2022-11-15T02:10:07.246Z,96063.34
2022-11-15T02:12:57.061Z,96062.84
2022-11-15T02:15:55.348Z,96066.34
2022-11-15T02:18:51.223Z,96055.38
2022-11-15T02:21:46.963Z,96047.34
2022-11-15T02:24:52.463Z,96034.28
2022-11-15T02:28:04.412Z,96028.41
2022-11-15T02:30:59.354Z,96028.69
2022-11-15T02:33:56.283Z,96031.09
2022-11-15T02:36:49.669Z,96021.78
2022-11-15T02:39:42.586Z,96023.09
2022-11-15T02:42:51.800Z,96021.25
2022-11-15T02:45:42.230Z,96026.06
2022-11-15T02:48:36.878Z,96018.88
2022-11-15T02:51:23.915Z,96022.34
2022-11-15T02:54:17.112Z,96019.94
2022-11-15T02:57:06.503Z,96006.63
2022-11-15T03:00:06.613Z,95999.41
2022-11-15T03:03:34.777Z,96000.22
2022-11-15T03:06:31.933Z,95990.59
2022-11-15T03:09:29.521Z,95995.94
2022-11-15T03:12:27.318Z,95997.00
2022-11-15T03:15:20.773Z,95996.72
2022-11-15T03:18:14.570Z,96004.47
2022-11-15T03:21:05.402Z,96000.22
2022-11-15T03:23:55.408Z,95987.94
2022-11-15T03:26:45.941Z,95990.34
2022-11-15T03:29:36.382Z,95995.41
2022-11-15T03:32:27.635Z,95990.34
2022-11-15T03:35:17.400Z,95984.22
2022-11-15T03:38:11.366Z,95982.88
2022-11-15T03:41:01.707Z,95979.16
2022-11-15T03:43:55.084Z,95968.22
2022-11-15T03:46:48.846Z,95967.13
2022-11-15T03:49:37.418Z,95979.94
2022-11-15T03:52:24.214Z,95971.16
2022-11-15T03:55:15.959Z,95973.06
2022-11-15T03:58:04.069Z,95971.47
2022-11-15T04:00:50.682Z,95972.50
2022-11-15T04:03:37.871Z,95973.31
2022-11-15T04:06:24.209Z,95971.97
2022-11-15T04:09:10.408Z,95973.06
2022-11-15T04:11:56.518Z,95973.31
2022-11-15T04:15:04.347Z,95969.03
2022-11-15T04:17:52.895Z,95971.47
2022-11-15T04:21:06.121Z,95964.25
2022-11-15T04:24:09.989Z,95966.91
2022-11-15T04:27:16.717Z,95955.16
2022-11-15T04:30:09.320Z,95955.44
2022-11-15T04:32:57.771Z,95947.16
2022-11-15T04:35:46.966Z,95943.19
2022-11-15T04:38:34.314Z,95945.00
2022-11-15T04:41:27.664Z,95936.50
2022-11-15T04:44:15.971Z,95933.84
2022-11-15T04:47:03.632Z,95928.53
2022-11-15T04:49:50.394Z,95929.31
2022-11-15T04:52:36.931Z,95933.06
2022-11-15T04:55:23.490Z,95933.56
2022-11-15T04:58:11.733Z,95928.22
2022-11-15T05:00:57.981Z,95930.38
2022-11-15T05:04:04.342Z,95933.84
2022-11-15T05:06:52.982Z,95934.09
2022-11-15T05:09:39.241Z,95928.25
2022-11-15T05:12:25.589Z,95929.84
2022-11-15T05:15:12.062Z,95920.25
2022-11-15T05:18:01.766Z,95914.13
2022-11-15T05:20:49.646Z,95922.38
2022-11-15T05:23:35.975Z,95921.06
2022-11-15T05:26:22.068Z,95916.81
2022-11-15T05:29:11.473Z,95913.88
2022-11-15T05:31:57.642Z,95910.91
2022-11-15T05:34:43.752Z,95912.78
2022-11-15T05:37:31.640Z,95909.03
2022-11-15T05:40:18.241Z,95904.25
2022-11-15T05:43:06.820Z,95901.84
2022-11-15T05:45:53.314Z,95890.94
2022-11-15T05:48:42.676Z,95901.59
2022-11-15T05:51:30.914Z,95916.53
2022-11-15T05:54:19.653Z,95921.88
2022-11-15T05:57:06.646Z,95910.94
2022-11-15T05:59:53.796Z,95903.72
2022-11-15T06:02:39.839Z,95897.59
2022-11-15T06:05:26.297Z,95900.28
2022-11-15T06:08:12.862Z,95909.06
2022-11-15T06:11:07.041Z,95898.41
2022-11-15T06:13:56.094Z,95902.41
2022-11-15T06:16:42.701Z,95903.47
2022-11-15T06:19:33.651Z,95901.88
2022-11-15T06:22:20.990Z,95902.41
2022-11-15T06:25:08.155Z,95902.41
2022-11-15T06:27:56.720Z,95903.75
2022-11-15T06:30:42.866Z,95892.53
2022-11-15T06:33:29.473Z,95902.66
2022-11-15T06:36:19.038Z,95909.34
2022-11-15T06:39:05.370Z,95920.25
2022-11-15T06:41:52.043Z,95920.25
2022-11-15T06:44:39.707Z,95919.22
2022-11-15T06:47:26.176Z,95916.00
2022-11-15T06:50:13.551Z,95910.66
2022-11-15T06:53:03.567Z,95912.53
2022-11-15T06:55:55.199Z,95915.19
2022-11-15T06:58:41.775Z,95918.13
2022-11-15T07:01:29.377Z,95917.84
2022-11-15T07:04:15.825Z,95910.13
2022-11-15T07:07:02.387Z,95907.19
2022-11-15T07:09:51.718Z,95909.31
2022-11-15T07:12:40.197Z,95905.84
2022-11-15T07:15:28.055Z,95913.34
2022-11-15T07:18:16.181Z,95919.72
2022-11-15T07:21:06.861Z,95914.13
2022-11-15T07:23:54.340Z,95895.97
2022-11-15T07:26:41.677Z,95891.69
2022-11-15T07:29:28.016Z,95895.16
2022-11-15T07:32:14.267Z,95898.06
2022-11-15T07:35:02.189Z,95891.16
2022-11-15T07:37:55.857Z,95886.88
2022-11-15T07:40:42.672Z,95878.59
2022-11-15T07:43:30.723Z,95874.31
2022-11-15T07:46:17.431Z,95875.66
2022-11-15T07:49:06.467Z,95876.13
2022-11-15T07:51:55.183Z,95872.13
2022-11-15T07:54:42.094Z,95862.75
2022-11-15T07:57:29.068Z,95860.59
2022-11-15T08:00:17.023Z,95851.75
2022-11-15T08:03:07.025Z,95857.06
2022-11-15T08:05:53.818Z,95853.56
2022-11-15T08:08:41.594Z,95854.88
2022-11-15T08:11:27.778Z,95848.38
2022-11-15T08:14:14.187Z,95862.47
2022-11-15T08:17:00.546Z,95857.88
2022-11-15T08:19:46.986Z,95847.38
2022-11-15T08:22:33.522Z,95847.53
2022-11-15T08:25:21.351Z,95843.13
2022-11-15T08:28:10.100Z,95840.63
2022-11-15T08:30:58.531Z,95833.78
2022-11-15T08:33:47.174Z,95828.88
2022-11-15T08:36:44.627Z,95827.66
2022-11-15T08:39:36.919Z,95830.69
2022-11-15T08:42:33.365Z,95824.97
2022-11-15T08:45:19.594Z,95818.88
2022-11-15T08:48:06.886Z,95818.19
2022-11-15T08:50:56.174Z,95821.25
2022-11-15T08:53:44.009Z,95815.97
2022-11-15T08:56:30.625Z,95811.00
2022-11-15T08:59:19.643Z,95819.88
2022-11-15T09:02:06.674Z,95823.22
2022-11-15T09:04:53.901Z,95834.00
2022-11-15T09:07:40.159Z,95830.03
2022-11-15T09:10:26.442Z,95829.59
2022-11-15T09:13:12.589Z,95815.22
2022-11-15T09:16:01.502Z,95815.38
2022-11-15T09:18:48.347Z,95812.81
2022-11-15T09:21:34.904Z,95808.13
2022-11-15T09:24:22.092Z,95813.91
2022-11-15T09:27:08.796Z,95815.09
2022-11-15T09:29:55.029Z,95812.81
2022-11-15T09:32:42.701Z,95810.53
2022-11-15T09:35:28.979Z,95812.53
2022-11-15T09:38:16.480Z,95811.53
2022-11-15T09:41:36.939Z,95803.06
2022-11-15T09:44:49.079Z,95797.59
2022-11-15T09:47:57.859Z,95789.94
2022-11-15T09:50:52.548Z,95777.19
2022-11-15T09:53:57.542Z,95770.91
2022-11-15T09:56:21.736Z,95768.09
2022-11-15T09:59:03.496Z,95767.19
2022-11-15T10:01:50.808Z,95771.34
2022-11-15T10:04:20.453Z,95764.25
2022-11-15T10:07:04.140Z,95766.84
2022-11-15T10:09:39.785Z,95751.22
2022-11-15T10:12:10.104Z,95742.53
2022-11-15T10:14:40.271Z,95744.81
2022-11-15T10:17:23.305Z,95739.28
2022-11-15T10:20:09.743Z,95734.31
2022-11-15T10:22:42.161Z,95726.09
2022-11-15T10:25:19.681Z,95729.47
2022-11-15T10:27:54.549Z,95717.97
2022-11-15T10:30:22.977Z,95722.56
2022-11-15T10:32:51.457Z,95716.00
2022-11-15T10:35:24.477Z,95706.22
2022-11-15T10:37:52.582Z,95709.13
2022-11-15T10:40:26.968Z,95712.34
2022-11-15T10:43:14.809Z,95700.47
2022-11-15T10:45:43.436Z,95690.25
2022-11-15T10:48:23.771Z,95691.84
2022-11-15T10:50:54.659Z,95688.91
2022-11-15T10:53:31.538Z,95687.19
2022-11-15T10:56:07.306Z,95675.75
2022-11-15T10:58:41.093Z,95686.84
2022-11-15T11:01:18.225Z,95683.38
2022-11-15T11:03:59.123Z,95681.31
2022-11-15T11:06:48.545Z,95675.09
2022-11-15T11:09:32.943Z,95674.16
2022-11-15T11:12:05.292Z,95667.97
2022-11-15T11:14:43.142Z,95663.00
2022-11-15T11:17:19.777Z,95662.38
2022-11-15T11:19:59.709Z,95664.91
2022-11-15T11:22:41.459Z,95652.97
2022-11-15T11:25:24.900Z,95650.69
2022-11-15T11:28:07.618Z,95654.00
2022-11-15T11:30:52.078Z,95650.66
2022-11-15T11:33:28.994Z,95645.41
2022-11-15T11:36:11.942Z,95647.94
2022-11-15T11:38:58.862Z,95646.31
2022-11-15T11:41:55.316Z,95641.19
2022-11-15T11:44:35.347Z,95643.34
2022-11-15T11:47:08.277Z,95641.59
2022-11-15T11:49:46.763Z,95634.75
2022-11-15T11:52:20.316Z,95637.94
2022-11-15T11:55:00.861Z,95638.25
2022-11-15T11:57:36.443Z,95636.34
2022-11-15T12:00:18.945Z,95635.53
2022-11-15T12:03:02.988Z,95627.91
2022-11-15T12:05:38.632Z,95625.34
2022-11-15T12:08:27.260Z,95620.88
2022-11-15T12:11:04.895Z,95616.75
2022-11-15T12:13:39.245Z,95611.78
2022-11-15T12:16:16.194Z,95605.75
2022-11-15T12:18:50.593Z,95604.63
2022-11-15T12:21:29.707Z,95601.25
2022-11-15T12:24:05.531Z,95604.88
2022-11-15T12:26:40.733Z,95613.25
2022-11-15T12:29:17.344Z,95611.47
2022-11-15T12:31:52.191Z,95617.13
2022-11-15T12:34:39.323Z,95618.41
2022-11-15T12:37:35.744Z,95599.63
2022-11-15T12:40:23.348Z,95605.47
2022-11-15T12:43:05.851Z,95596.22
2022-11-15T12:45:37.714Z,95599.41
2022-11-15T12:48:43.440Z,95606.19
2022-11-15T12:51:16.277Z,95608.47
2022-11-15T12:53:45.560Z,95605.47
2022-11-15T12:56:27.332Z,95598.28
2022-11-15T12:58:59.840Z,95597.59
2022-11-15T13:02:03.984Z,95597.06
2022-11-15T13:04:32.995Z,95601.91
2022-11-15T13:07:04.055Z,95594.38
2022-11-15T13:10:32.959Z,95613.00
2022-11-15T13:13:02.666Z,95601.84
2022-11-15T13:15:42.776Z,95595.06
2022-11-15T13:18:33.971Z,95607.59
2022-11-15T13:21:27.180Z,95605.25
2022-11-15T13:24:00.825Z,95606.91
2022-11-15T13:26:32.293Z,95604.75
2022-11-15T13:29:01.619Z,95611.47
2022-11-15T13:31:39.577Z,95599.63
2022-11-15T13:34:50.138Z,95589.69
2022-11-15T13:37:29.738Z,95596.44
2022-11-15T13:40:17.948Z,95584.56
2022-11-15T13:42:46.200Z,95594.78
2022-11-15T13:45:22.341Z,95592.75
2022-11-15T13:47:58.139Z,95597.69
2022-11-15T13:50:30.488Z,95599.47
2022-11-15T13:53:01.863Z,95588.53
2022-11-15T13:55:33.881Z,95586.81
2022-11-15T13:58:10.326Z,95588.28
2022-11-15T14:00:43.975Z,95588.47
2022-11-15T14:03:22.168Z,95589.38
2022-11-15T14:06:09.874Z,95575.84
2022-11-15T14:08:39.841Z,95582.72
2022-11-15T14:11:10.056Z,95583.06
2022-11-15T14:13:39.834Z,95583.72
2022-11-15T14:16:21.560Z,95579.31
2022-11-15T14:18:54.213Z,95569.94
2022-11-15T14:21:22.411Z,95569.81
2022-11-15T14:23:51.626Z,95567.44
2022-11-15T14:26:35.818Z,95561.63
2022-11-15T14:29:24.469Z,95551.47
2022-11-15T14:31:52.571Z,95553.56
2022-11-15T14:34:24.699Z,95545.31
2022-11-15T14:36:57.451Z,95551.25
2022-11-15T14:39:26.099Z,95553.00
2022-11-15T14:41:55.140Z,95548.13
2022-11-15T14:44:24.938Z,95548.34
2022-11-15T14:46:52.803Z,95541.47
2022-11-15T14:49:22.895Z,95547.22
2022-11-15T14:51:52.697Z,95538.81
2022-11-15T14:54:22.592Z,95540.78
2022-11-15T14:56:51.947Z,95532.25
2022-11-15T14:59:19.692Z,95528.97
2022-11-15T15:01:49.929Z,95524.34
2022-11-15T15:04:17.635Z,95515.97
2022-11-15T15:06:48.804Z,95515.03
2022-11-15T15:09:16.914Z,95507.13
2022-11-15T15:11:49.204Z,95505.72
2022-11-15T15:14:17.301Z,95500.50
2022-11-15T15:16:44.987Z,95507.22
2022-11-15T15:19:12.762Z,95495.78
2022-11-15T15:21:40.849Z,95489.00
2022-11-15T15:24:16.723Z,95486.03
2022-11-15T15:26:44.476Z,95478.13
2022-11-15T15:29:12.237Z,95476.69
2022-11-15T15:31:39.988Z,95482.75
2022-11-15T15:34:10.865Z,95470.69
2022-11-15T15:36:43.149Z,95471.97
2022-11-15T15:39:12.550Z,95479.91
2022-11-15T15:41:41.488Z,95477.41
2022-11-15T15:44:09.190Z,95481.06
2022-11-15T15:46:37.248Z,95481.22
2022-11-15T15:49:04.943Z,95474.09
2022-11-15T15:51:32.726Z,95463.50
2022-11-15T15:54:00.424Z,95465.25
2022-11-15T15:56:29.570Z,95455.88
2022-11-15T15:58:57.460Z,95466.84
2022-11-15T16:01:25.779Z,95459.72
2022-11-15T16:03:53.538Z,95459.88
2022-11-15T16:06:40.132Z,95460.19
2022-11-15T16:09:16.608Z,95453.06
2022-11-15T16:11:47.868Z,95452.88
2022-11-15T16:14:15.583Z,95443.53
2022-11-15T16:16:43.305Z,95439.59
2022-11-15T16:19:12.837Z,95435.31
2022-11-15T16:21:40.584Z,95440.22
2022-11-15T16:24:08.366Z,95442.78
2022-11-15T16:26:37.857Z,95437.84
2022-11-15T16:29:07.931Z,95432.97
2022-11-15T16:31:36.119Z,95432.00
2022-11-15T16:34:03.858Z,95434.38
2022-11-15T16:36:34.978Z,95430.44
2022-11-15T16:39:05.225Z,95424.88
2022-11-15T16:41:33.436Z,95427.88
2022-11-15T16:44:01.194Z,95423.94
2022-11-15T16:46:30.303Z,95413.78
2022-11-15T16:48:58.057Z,95416.81
2022-11-15T16:51:25.949Z,95413.94
2022-11-15T16:53:53.801Z,95416.81
2022-11-15T16:56:26.518Z,95405.88
2022-11-15T16:58:54.688Z,95416.47
2022-11-15T17:01:26.593Z,95418.72
2022-11-15T17:03:56.478Z,95416.03
2022-11-15T17:06:25.793Z,95413.81
2022-11-15T17:08:53.814Z,95413.00
2022-11-15T17:11:23.646Z,95402.56
2022-11-15T17:13:51.466Z,95402.88
2022-11-15T17:16:19.750Z,95404.78
2022-11-15T17:18:52.150Z,95402.09
2022-11-15T17:21:22.938Z,95398.91
2022-11-15T17:23:50.708Z,95406.53
2022-11-15T17:26:29.609Z,95407.13
2022-11-15T17:29:00.093Z,95404.44
2022-11-15T17:31:30.103Z,95410.94
2022-11-15T17:33:57.972Z,95396.22
2022-11-15T17:36:27.227Z,95394.97
2022-11-15T17:38:59.318Z,95395.28
2022-11-15T17:41:28.522Z,95389.09
2022-11-15T17:43:57.823Z,95383.72
2022-11-15T17:46:25.489Z,95375.63
2022-11-15T17:48:53.370Z,95371.06
2022-11-15T17:51:22.046Z,95373.28
2022-11-15T17:53:51.637Z,95370.59
2022-11-15T17:56:20.873Z,95360.16
2022-11-15T17:58:50.346Z,95355.88
2022-11-15T18:01:20.491Z,95363.94
2022-11-15T18:03:48.753Z,95361.25
2022-11-15T18:06:17.980Z,95355.38
2022-11-15T18:08:47.124Z,95356.19
2022-11-15T18:11:20.067Z,95354.28
2022-11-15T18:13:52.422Z,95359.66
2022-11-15T18:16:22.855Z,95358.41
2022-11-15T18:18:50.590Z,95355.09
2022-11-15T18:21:19.981Z,95339.25
2022-11-15T18:23:52.410Z,95343.84
2022-11-15T18:26:39.851Z,95339.06
2022-11-15T18:29:07.530Z,95332.28
2022-11-15T18:31:35.196Z,95329.94
2022-11-15T18:34:02.854Z,95329.94
2022-11-15T18:36:31.768Z,95325.16
2022-11-15T18:39:02.247Z,95328.19
2022-11-15T18:41:30.756Z,95334.19
2022-11-15T18:44:01.110Z,95328.81
2022-11-15T18:46:30.701Z,95328.63
2022-11-15T18:48:59.961Z,95318.03
2022-11-15T18:51:30.458Z,95319.94
2022-11-15T18:54:01.139Z,95316.00
2022-11-15T18:56:30.637Z,95310.44
2022-11-15T18:59:01.789Z,95304.28
2022-11-15T19:01:32.602Z,95298.91
2022-11-15T19:04:04.457Z,95302.69
2022-11-15T19:06:32.182Z,95295.72
2022-11-15T19:09:00.837Z,95296.84
2022-11-15T19:11:31.103Z,95291.00
2022-11-15T19:14:03.099Z,95294.00
2022-11-15T19:16:33.143Z,95284.03
2022-11-15T19:19:02.933Z,95284.03
2022-11-15T19:21:31.993Z,95281.34
2022-11-15T19:24:00.790Z,95283.25
2022-11-15T19:26:29.505Z,95283.06
2022-11-15T19:28:58.769Z,95286.09
2022-11-15T19:31:29.342Z,95283.22
2022-11-15T19:33:59.330Z,95282.75
2022-11-15T19:36:28.838Z,95275.81
2022-11-15T19:38:57.278Z,95272.34
2022-11-15T19:41:26.186Z,95265.06
2022-11-15T19:43:54.774Z,95260.47
2022-11-15T19:46:23.542Z,95259.97
2022-11-15T19:48:52.762Z,95266.47
2022-11-15T19:51:22.520Z,95269.81
2022-11-15T19:53:51.202Z,95269.31
2022-11-15T19:56:20.362Z,95265.84
2022-11-15T19:58:52.359Z,95258.56
2022-11-15T20:01:21.724Z,95252.41
2022-11-15T20:03:50.786Z,95253.97
2022-11-15T20:06:22.392Z,95245.91
2022-11-15T20:08:50.140Z,95243.22
2022-11-15T20:11:18.713Z,95236.28
2022-11-15T20:13:46.936Z,95247.81
2022-11-15T20:16:18.281Z,95243.56
2022-11-15T20:18:46.357Z,95242.75
2022-11-15T20:21:14.281Z,95241.19
2022-11-15T20:23:43.875Z,95242.28
2022-11-15T20:26:13.870Z,95238.50
2022-11-15T20:28:41.893Z,95229.63
2022-11-15T20:31:10.693Z,95225.84
2022-11-15T20:33:38.413Z,95218.59
2022-11-15T20:36:06.880Z,95217.00
2022-11-15T20:38:34.932Z,95215.09
2022-11-15T20:41:04.604Z,95213.22
2022-11-15T20:43:32.397Z,95213.22
2022-11-15T20:46:00.118Z,95200.56
2022-11-15T20:48:27.994Z,95194.41
2022-11-15T20:51:05.456Z,95189.81
2022-11-15T20:53:33.188Z,95189.81
2022-11-15T20:56:08.973Z,95194.06
2022-11-15T20:58:37.397Z,95188.69
2022-11-15T21:01:06.190Z,95175.59
2022-11-15T21:03:34.690Z,95170.22
2022-11-15T21:06:02.407Z,95168.94
2022-11-15T21:08:51.457Z,95164.69
2022-11-15T21:11:38.357Z,95159.63
2022-11-15T21:14:09.251Z,95158.53
2022-11-15T21:16:37.561Z,95165.16
2022-11-15T21:19:06.831Z,95156.16
2022-11-15T21:21:34.674Z,95155.22
2022-11-15T21:24:03.570Z,95151.25
2022-11-15T21:26:33.052Z,95146.19
2022-11-15T21:29:00.785Z,95144.13
2022-11-15T21:31:28.806Z,95154.09
2022-11-15T21:33:56.474Z,95144.91
2022-11-15T21:36:25.017Z,95136.06
2022-11-15T21:38:53.570Z,95141.44
2022-11-15T21:41:21.283Z,95134.19
2022-11-15T21:43:50.289Z,95125.66
2022-11-15T21:46:18.706Z,95132.94
2022-11-15T21:48:46.460Z,95120.63
2022-11-15T21:51:14.170Z,95126.78
2022-11-15T21:53:42.060Z,95117.59
2022-11-15T21:56:11.792Z,95113.00
2022-11-15T21:58:39.796Z,95102.28
2022-11-15T22:01:31.552Z,95091.84
2022-11-15T22:03:59.294Z,95083.81
2022-11-15T22:06:27.006Z,95088.38
2022-11-15T22:08:54.739Z,95097.53
2022-11-15T22:11:22.480Z,95097.53
2022-11-15T22:13:50.400Z,95091.06
2022-11-15T22:16:19.465Z,95083.00
2022-11-15T22:18:47.249Z,95076.84
2022-11-15T22:21:16.630Z,95079.53
2022-11-15T22:23:45.583Z,95074.63
2022-11-15T22:26:16.536Z,95072.41
2022-11-15T22:28:47.665Z,95073.34
2022-11-15T22:31:15.463Z,95064.19
2022-11-15T22:33:44.614Z,95065.47
2022-11-15T22:36:13.602Z,95062.78
2022-11-15T22:38:41.444Z,95059.47
2022-11-15T22:41:09.920Z,95061.50
2022-11-15T22:43:38.115Z,95062.28
2022-11-15T22:46:06.773Z,95059.13
2022-11-15T22:48:36.558Z,95051.84
2022-11-15T22:51:07.018Z,95048.06
2022-11-15T22:53:34.987Z,95047.59
2022-11-15T22:56:05.166Z,95037.19
2022-11-15T22:58:34.371Z,95037.47
2022-11-15T23:01:04.268Z,95030.88
2022-11-15T23:03:33.379Z,95022.03
2022-11-15T23:06:07.872Z,95026.28
2022-11-15T23:08:36.134Z,95023.91
2022-11-15T23:11:22.962Z,95018.84
2022-11-15T23:13:52.337Z,95007.31
2022-11-15T23:16:23.695Z,95009.22
2022-11-15T23:18:53.263Z,95008.91
2022-11-15T23:21:42.596Z,95002.41
2022-11-15T23:24:11.562Z,94992.94
2022-11-15T23:26:40.118Z,94991.19
2022-11-15T23:29:10.560Z,94990.06
2022-11-15T23:32:01.599Z,94985.19
2022-11-15T23:34:31.066Z,94987.22
2022-11-15T23:37:00.773Z,94975.84
2022-11-15T23:39:28.906Z,94976.59
2022-11-15T23:41:57.032Z,94978.16
2022-11-15T23:44:25.629Z,94970.69
2022-11-15T23:46:53.817Z,94976.66
2022-11-15T23:49:21.702Z,94982.66
2022-11-15T23:51:49.608Z,94980.09
2022-11-15T23:54:18.769Z,94979.13
2022-11-15T23:56:46.564Z,94985.00
2022-11-15T23:59:14.382Z,94984.22
